sensor_id;sensor_type;location;lat;lon;timestamp;temperature;humidity
5086;DHT22;4715;51.660;7.082;2022-12-18T00:01:16;-5.70;99.90
5086;DHT22;4715;51.660;7.082;2022-12-18T00:03:39;-5.80;99.90
5086;DHT22;4715;51.660;7.082;2022-12-18T00:06:02;-5.80;99.90
5086;DHT22;4715;51.660;7.082;2022-12-18T00:08:24;-5.80;99.90
5086;DHT22;4715;51.660;7.082;2022-12-18T00:10:46;-5.80;99.90
5086;DHT22;4715;51.660;7.082;2022-12-18T00:13:08;-5.90;99.90
5086;DHT22;4715;51.660;7.082;2022-12-18T00:15:30;-5.90;99.90
5086;DHT22;4715;51.660;7.082;2022-12-18T00:17:54;-6.00;99.90
5086;DHT22;4715;51.660;7.082;2022-12-18T00:20:16;-6.10;99.90
5086;DHT22;4715;51.660;7.082;2022-12-18T00:22:43;-6.10;99.90
5086;DHT22;4715;51.660;7.082;2022-12-18T00:25:05;-6.10;99.90
5086;DHT22;4715;51.660;7.082;2022-12-18T00:27:27;-6.10;99.90
5086;DHT22;4715;51.660;7.082;2022-12-18T00:29:49;-6.20;99.90
5086;DHT22;4715;51.660;7.082;2022-12-18T00:32:11;-6.10;99.90
5086;DHT22;4715;51.660;7.082;2022-12-18T00:34:34;-6.10;99.90
5086;DHT22;4715;51.660;7.082;2022-12-18T00:36:56;-6.10;99.90
5086;DHT22;4715;51.660;7.082;2022-12-18T00:39:19;-6.00;99.90
5086;DHT22;4715;51.660;7.082;2022-12-18T00:41:41;-6.00;99.90
5086;DHT22;4715;51.660;7.082;2022-12-18T00:44:20;-6.10;99.90
5086;DHT22;4715;51.660;7.082;2022-12-18T00:46:42;-6.20;99.90
5086;DHT22;4715;51.660;7.082;2022-12-18T00:49:05;-6.20;99.90
5086;DHT22;4715;51.660;7.082;2022-12-18T00:51:27;-6.20;99.90
5086;DHT22;4715;51.660;7.082;2022-12-18T00:53:49;-6.20;99.90
5086;DHT22;4715;51.660;7.082;2022-12-18T00:56:12;-6.20;99.90
5086;DHT22;4715;51.660;7.082;2022-12-18T00:58:35;-6.20;99.90
5086;DHT22;4715;51.660;7.082;2022-12-18T01:00:57;-6.30;99.90
5086;DHT22;4715;51.660;7.082;2022-12-18T01:03:19;-6.30;99.90
5086;DHT22;4715;51.660;7.082;2022-12-18T01:05:41;-6.30;99.90
5086;DHT22;4715;51.660;7.082;2022-12-18T01:08:03;-6.30;99.90
5086;DHT22;4715;51.660;7.082;2022-12-18T01:10:25;-6.30;99.90
5086;DHT22;4715;51.660;7.082;2022-12-18T01:12:49;-6.20;99.90
5086;DHT22;4715;51.660;7.082;2022-12-18T01:15:12;-6.20;99.90
5086;DHT22;4715;51.660;7.082;2022-12-18T01:17:34;-6.20;99.90
5086;DHT22;4715;51.660;7.082;2022-12-18T01:19:59;-6.10;99.90
5086;DHT22;4715;51.660;7.082;2022-12-18T01:22:21;-6.10;99.90
5086;DHT22;4715;51.660;7.082;2022-12-18T01:24:43;-6.10;99.90
5086;DHT22;4715;51.660;7.082;2022-12-18T01:27:04;-6.00;99.90
5086;DHT22;4715;51.660;7.082;2022-12-18T01:29:28;-6.00;99.90
5086;DHT22;4715;51.660;7.082;2022-12-18T01:31:50;-5.90;99.90
5086;DHT22;4715;51.660;7.082;2022-12-18T01:34:11;-5.90;99.90
5086;DHT22;4715;51.660;7.082;2022-12-18T01:36:35;-5.90;99.90
5086;DHT22;4715;51.660;7.082;2022-12-18T01:38:59;-5.90;99.90
5086;DHT22;4715;51.660;7.082;2022-12-18T01:41:23;-5.90;99.90
5086;DHT22;4715;51.660;7.082;2022-12-18T01:43:48;-5.90;99.90
5086;DHT22;4715;51.660;7.082;2022-12-18T01:46:12;-6.00;99.90
5086;DHT22;4715;51.660;7.082;2022-12-18T01:48:33;-6.00;99.90
5086;DHT22;4715;51.660;7.082;2022-12-18T01:50:55;-6.00;99.90
5086;DHT22;4715;51.660;7.082;2022-12-18T01:53:20;-6.00;99.90
5086;DHT22;4715;51.660;7.082;2022-12-18T01:55:45;-6.00;99.90
5086;DHT22;4715;51.660;7.082;2022-12-18T01:58:09;-6.10;99.90
5086;DHT22;4715;51.660;7.082;2022-12-18T02:00:31;-6.10;99.90
5086;DHT22;4715;51.660;7.082;2022-12-18T02:02:54;-6.10;99.90
5086;DHT22;4715;51.660;7.082;2022-12-18T02:05:19;-6.20;99.90
5086;DHT22;4715;51.660;7.082;2022-12-18T02:07:49;-6.20;99.90
5086;DHT22;4715;51.660;7.082;2022-12-18T02:10:18;-6.20;99.90
5086;DHT22;4715;51.660;7.082;2022-12-18T02:12:45;-6.20;99.90
5086;DHT22;4715;51.660;7.082;2022-12-18T02:15:15;-6.20;99.90
5086;DHT22;4715;51.660;7.082;2022-12-18T02:17:42;-6.20;99.90
5086;DHT22;4715;51.660;7.082;2022-12-18T02:20:12;-6.20;99.90
5086;DHT22;4715;51.660;7.082;2022-12-18T02:22:47;-6.10;99.90
5086;DHT22;4715;51.660;7.082;2022-12-18T02:25:22;-6.10;99.90
5086;DHT22;4715;51.660;7.082;2022-12-18T02:27:50;-6.10;99.90
5086;DHT22;4715;51.660;7.082;2022-12-18T02:30:14;-6.10;99.90
5086;DHT22;4715;51.660;7.082;2022-12-18T02:32:39;-6.10;99.90
5086;DHT22;4715;51.660;7.082;2022-12-18T02:35:05;-6.10;99.90
5086;DHT22;4715;51.660;7.082;2022-12-18T02:37:28;-6.20;99.90
5086;DHT22;4715;51.660;7.082;2022-12-18T02:39:53;-6.20;99.90
5086;DHT22;4715;51.660;7.082;2022-12-18T02:42:17;-6.30;99.90
5086;DHT22;4715;51.660;7.082;2022-12-18T02:44:45;-6.40;99.90
5086;DHT22;4715;51.660;7.082;2022-12-18T02:47:10;-6.40;99.90
5086;DHT22;4715;51.660;7.082;2022-12-18T02:49:39;-6.50;99.90
5086;DHT22;4715;51.660;7.082;2022-12-18T02:52:11;-6.50;99.90
5086;DHT22;4715;51.660;7.082;2022-12-18T02:54:45;-6.60;99.90
5086;DHT22;4715;51.660;7.082;2022-12-18T02:57:15;-6.60;99.90
5086;DHT22;4715;51.660;7.082;2022-12-18T02:59:42;-6.60;99.90
5086;DHT22;4715;51.660;7.082;2022-12-18T03:02:17;-6.60;99.90
5086;DHT22;4715;51.660;7.082;2022-12-18T03:04:47;-6.60;99.90
5086;DHT22;4715;51.660;7.082;2022-12-18T03:07:14;-6.60;99.90
5086;DHT22;4715;51.660;7.082;2022-12-18T03:09:39;-6.50;99.90
5086;DHT22;4715;51.660;7.082;2022-12-18T03:12:06;-6.50;99.90
5086;DHT22;4715;51.660;7.082;2022-12-18T03:14:49;-6.50;99.90
5086;DHT22;4715;51.660;7.082;2022-12-18T03:17:16;-6.50;99.90
5086;DHT22;4715;51.660;7.082;2022-12-18T03:19:40;-6.50;99.90
5086;DHT22;4715;51.660;7.082;2022-12-18T03:22:03;-6.50;99.90
5086;DHT22;4715;51.660;7.082;2022-12-18T03:24:29;-6.60;99.90
5086;DHT22;4715;51.660;7.082;2022-12-18T03:26:56;-6.60;99.90
5086;DHT22;4715;51.660;7.082;2022-12-18T03:29:22;-6.60;99.90
5086;DHT22;4715;51.660;7.082;2022-12-18T03:31:49;-6.60;99.90
5086;DHT22;4715;51.660;7.082;2022-12-18T03:34:17;-6.50;99.90
5086;DHT22;4715;51.660;7.082;2022-12-18T03:36:40;-6.50;99.90
5086;DHT22;4715;51.660;7.082;2022-12-18T03:39:02;-6.50;99.90
5086;DHT22;4715;51.660;7.082;2022-12-18T03:41:29;-6.50;99.90
5086;DHT22;4715;51.660;7.082;2022-12-18T03:43:58;-6.40;99.90
5086;DHT22;4715;51.660;7.082;2022-12-18T03:46:26;-6.40;99.90
5086;DHT22;4715;51.660;7.082;2022-12-18T03:48:53;-6.40;99.90
5086;DHT22;4715;51.660;7.082;2022-12-18T03:51:20;-6.40;99.90
5086;DHT22;4715;51.660;7.082;2022-12-18T03:53:49;-6.40;99.90
5086;DHT22;4715;51.660;7.082;2022-12-18T03:56:15;-6.30;99.90
5086;DHT22;4715;51.660;7.082;2022-12-18T03:58:39;-6.30;99.90
5086;DHT22;4715;51.660;7.082;2022-12-18T04:01:05;-6.30;99.90
5086;DHT22;4715;51.660;7.082;2022-12-18T04:03:28;-6.30;99.90
5086;DHT22;4715;51.660;7.082;2022-12-18T04:05:52;-6.30;99.90
5086;DHT22;4715;51.660;7.082;2022-12-18T04:08:17;-6.30;99.90
5086;DHT22;4715;51.660;7.082;2022-12-18T04:10:39;-6.40;99.90
5086;DHT22;4715;51.660;7.082;2022-12-18T04:13:01;-6.40;99.90
5086;DHT22;4715;51.660;7.082;2022-12-18T04:15:23;-6.40;99.90
5086;DHT22;4715;51.660;7.082;2022-12-18T04:17:48;-6.40;99.90
5086;DHT22;4715;51.660;7.082;2022-12-18T04:20:10;-6.40;99.90
5086;DHT22;4715;51.660;7.082;2022-12-18T04:22:32;-6.50;99.90
5086;DHT22;4715;51.660;7.082;2022-12-18T04:24:55;-6.50;99.90
5086;DHT22;4715;51.660;7.082;2022-12-18T04:27:17;-6.50;99.90
5086;DHT22;4715;51.660;7.082;2022-12-18T04:29:39;-6.50;99.90
5086;DHT22;4715;51.660;7.082;2022-12-18T04:32:01;-6.60;99.90
5086;DHT22;4715;51.660;7.082;2022-12-18T04:34:23;-6.60;99.90
5086;DHT22;4715;51.660;7.082;2022-12-18T04:36:45;-6.60;99.90
5086;DHT22;4715;51.660;7.082;2022-12-18T04:39:07;-6.70;99.90
5086;DHT22;4715;51.660;7.082;2022-12-18T04:41:30;-6.70;99.90
5086;DHT22;4715;51.660;7.082;2022-12-18T04:43:52;-6.70;99.90
5086;DHT22;4715;51.660;7.082;2022-12-18T04:46:14;-6.70;99.90
5086;DHT22;4715;51.660;7.082;2022-12-18T04:48:36;-6.70;99.90
5086;DHT22;4715;51.660;7.082;2022-12-18T04:50:58;-6.70;99.90
5086;DHT22;4715;51.660;7.082;2022-12-18T04:53:20;-6.70;99.90
5086;DHT22;4715;51.660;7.082;2022-12-18T04:55:42;-6.70;99.90
5086;DHT22;4715;51.660;7.082;2022-12-18T04:58:05;-6.70;99.90
5086;DHT22;4715;51.660;7.082;2022-12-18T05:00:27;-6.70;99.90
5086;DHT22;4715;51.660;7.082;2022-12-18T05:02:48;-6.70;99.90
5086;DHT22;4715;51.660;7.082;2022-12-18T05:05:10;-6.70;99.90
5086;DHT22;4715;51.660;7.082;2022-12-18T05:07:32;-6.80;99.90
5086;DHT22;4715;51.660;7.082;2022-12-18T05:09:54;-6.80;99.90
5086;DHT22;4715;51.660;7.082;2022-12-18T05:12:16;-6.80;99.90
5086;DHT22;4715;51.660;7.082;2022-12-18T05:14:39;-6.80;99.90
5086;DHT22;4715;51.660;7.082;2022-12-18T05:17:01;-6.80;99.90
5086;DHT22;4715;51.660;7.082;2022-12-18T05:19:23;-6.80;99.90
5086;DHT22;4715;51.660;7.082;2022-12-18T05:21:44;-6.80;99.90
5086;DHT22;4715;51.660;7.082;2022-12-18T05:24:06;-6.80;99.90
5086;DHT22;4715;51.660;7.082;2022-12-18T05:26:28;-6.80;99.90
5086;DHT22;4715;51.660;7.082;2022-12-18T05:28:50;-6.70;99.90
5086;DHT22;4715;51.660;7.082;2022-12-18T05:31:14;-6.70;99.90
5086;DHT22;4715;51.660;7.082;2022-12-18T05:33:36;-6.70;99.90
5086;DHT22;4715;51.660;7.082;2022-12-18T05:36:01;-6.70;99.90
5086;DHT22;4715;51.660;7.082;2022-12-18T05:38:25;-6.70;99.90
5086;DHT22;4715;51.660;7.082;2022-12-18T05:40:48;-6.70;99.90
5086;DHT22;4715;51.660;7.082;2022-12-18T05:43:10;-6.70;99.90
5086;DHT22;4715;51.660;7.082;2022-12-18T05:45:31;-6.70;99.90
5086;DHT22;4715;51.660;7.082;2022-12-18T05:47:55;-6.70;99.90
5086;DHT22;4715;51.660;7.082;2022-12-18T05:50:17;-6.70;99.90
5086;DHT22;4715;51.660;7.082;2022-12-18T05:52:39;-6.70;99.90
5086;DHT22;4715;51.660;7.082;2022-12-18T05:55:01;-6.70;99.90
5086;DHT22;4715;51.660;7.082;2022-12-18T05:57:25;-6.70;99.90
5086;DHT22;4715;51.660;7.082;2022-12-18T05:59:47;-6.70;99.90
5086;DHT22;4715;51.660;7.082;2022-12-18T06:02:12;-6.80;99.90
5086;DHT22;4715;51.660;7.082;2022-12-18T06:04:35;-6.80;99.90
5086;DHT22;4715;51.660;7.082;2022-12-18T06:06:57;-6.80;99.90
5086;DHT22;4715;51.660;7.082;2022-12-18T06:09:19;-6.90;99.90
5086;DHT22;4715;51.660;7.082;2022-12-18T06:11:41;-6.90;99.90
5086;DHT22;4715;51.660;7.082;2022-12-18T06:14:05;-6.90;99.90
5086;DHT22;4715;51.660;7.082;2022-12-18T06:16:28;-6.90;99.90
5086;DHT22;4715;51.660;7.082;2022-12-18T06:18:51;-6.90;99.90
5086;DHT22;4715;51.660;7.082;2022-12-18T06:21:14;-6.90;99.90
5086;DHT22;4715;51.660;7.082;2022-12-18T06:23:38;-6.80;99.90
5086;DHT22;4715;51.660;7.082;2022-12-18T06:26:04;-6.80;99.90
5086;DHT22;4715;51.660;7.082;2022-12-18T06:28:26;-6.80;99.90
5086;DHT22;4715;51.660;7.082;2022-12-18T06:30:49;-6.80;99.90
5086;DHT22;4715;51.660;7.082;2022-12-18T06:33:11;-6.80;99.90
5086;DHT22;4715;51.660;7.082;2022-12-18T06:35:34;-6.80;99.90
5086;DHT22;4715;51.660;7.082;2022-12-18T06:37:57;-6.90;99.90
5086;DHT22;4715;51.660;7.082;2022-12-18T06:40:19;-6.90;99.90
5086;DHT22;4715;51.660;7.082;2022-12-18T06:42:42;-6.90;99.90
5086;DHT22;4715;51.660;7.082;2022-12-18T06:45:04;-6.90;99.90
5086;DHT22;4715;51.660;7.082;2022-12-18T06:47:26;-6.90;99.90
5086;DHT22;4715;51.660;7.082;2022-12-18T06:49:48;-6.90;99.90
5086;DHT22;4715;51.660;7.082;2022-12-18T06:52:10;-6.90;99.90
5086;DHT22;4715;51.660;7.082;2022-12-18T06:54:33;-6.90;99.90
5086;DHT22;4715;51.660;7.082;2022-12-18T06:56:58;-6.80;99.90
5086;DHT22;4715;51.660;7.082;2022-12-18T06:59:20;-6.80;99.90
5086;DHT22;4715;51.660;7.082;2022-12-18T07:01:42;-6.80;99.90
5086;DHT22;4715;51.660;7.082;2022-12-18T07:04:07;-6.80;99.90
5086;DHT22;4715;51.660;7.082;2022-12-18T07:06:29;-6.80;99.90
5086;DHT22;4715;51.660;7.082;2022-12-18T07:08:51;-6.90;99.90
5086;DHT22;4715;51.660;7.082;2022-12-18T07:11:15;-6.90;99.90
5086;DHT22;4715;51.660;7.082;2022-12-18T07:13:38;-6.90;99.90
5086;DHT22;4715;51.660;7.082;2022-12-18T07:16:08;-7.00;99.90
5086;DHT22;4715;51.660;7.082;2022-12-18T07:18:31;-7.00;99.90
5086;DHT22;4715;51.660;7.082;2022-12-18T07:20:52;-7.10;99.90
5086;DHT22;4715;51.660;7.082;2022-12-18T07:23:15;-7.20;99.90
5086;DHT22;4715;51.660;7.082;2022-12-18T07:25:39;-7.20;99.90
5086;DHT22;4715;51.660;7.082;2022-12-18T07:28:02;-7.20;99.90
5086;DHT22;4715;51.660;7.082;2022-12-18T07:30:24;-7.20;99.90
5086;DHT22;4715;51.660;7.082;2022-12-18T07:32:46;-7.30;99.90
5086;DHT22;4715;51.660;7.082;2022-12-18T07:35:08;-7.30;99.90
5086;DHT22;4715;51.660;7.082;2022-12-18T07:37:31;-7.40;99.90
5086;DHT22;4715;51.660;7.082;2022-12-18T07:39:53;-7.40;99.90
5086;DHT22;4715;51.660;7.082;2022-12-18T07:42:14;-7.40;99.90
5086;DHT22;4715;51.660;7.082;2022-12-18T07:44:57;-7.40;99.90
5086;DHT22;4715;51.660;7.082;2022-12-18T07:47:21;-7.40;99.90
5086;DHT22;4715;51.660;7.082;2022-12-18T07:50:17;-7.40;99.90
5086;DHT22;4715;51.660;7.082;2022-12-18T07:53:33;-7.30;99.90
5086;DHT22;4715;51.660;7.082;2022-12-18T07:56:13;-7.20;99.90
5086;DHT22;4715;51.660;7.082;2022-12-18T07:59:05;-7.20;99.90
5086;DHT22;4715;51.660;7.082;2022-12-18T08:01:57;-7.10;99.90
5086;DHT22;4715;51.660;7.082;2022-12-18T08:04:19;-7.10;99.90
5086;DHT22;4715;51.660;7.082;2022-12-18T08:06:41;-7.10;99.90
5086;DHT22;4715;51.660;7.082;2022-12-18T08:09:03;-7.10;99.90
5086;DHT22;4715;51.660;7.082;2022-12-18T08:11:27;-7.00;99.90
5086;DHT22;4715;51.660;7.082;2022-12-18T08:13:49;-6.90;99.90
5086;DHT22;4715;51.660;7.082;2022-12-18T08:16:11;-6.90;99.90
5086;DHT22;4715;51.660;7.082;2022-12-18T08:18:36;-6.80;99.90
5086;DHT22;4715;51.660;7.082;2022-12-18T08:21:08;-6.70;99.90
5086;DHT22;4715;51.660;7.082;2022-12-18T08:23:53;-6.60;99.90
5086;DHT22;4715;51.660;7.082;2022-12-18T08:26:50;-6.60;99.90
5086;DHT22;4715;51.660;7.082;2022-12-18T08:29:26;-6.50;99.90
5086;DHT22;4715;51.660;7.082;2022-12-18T08:31:48;-6.40;99.90
5086;DHT22;4715;51.660;7.082;2022-12-18T08:34:14;-6.40;99.90
5086;DHT22;4715;51.660;7.082;2022-12-18T08:36:36;-6.30;99.90
5086;DHT22;4715;51.660;7.082;2022-12-18T08:38:58;-6.30;99.90
5086;DHT22;4715;51.660;7.082;2022-12-18T08:41:21;-6.30;99.90
5086;DHT22;4715;51.660;7.082;2022-12-18T08:43:46;-6.10;99.90
5086;DHT22;4715;51.660;7.082;2022-12-18T08:46:31;-6.10;99.90
5086;DHT22;4715;51.660;7.082;2022-12-18T08:49:00;-5.90;99.90
5086;DHT22;4715;51.660;7.082;2022-12-18T08:51:24;-5.90;99.90
5086;DHT22;4715;51.660;7.082;2022-12-18T08:53:47;-5.60;99.90
5086;DHT22;4715;51.660;7.082;2022-12-18T08:56:12;-5.60;99.90
5086;DHT22;4715;51.660;7.082;2022-12-18T08:58:35;-5.50;99.90
5086;DHT22;4715;51.660;7.082;2022-12-18T09:03:28;-5.20;99.90
5086;DHT22;4715;51.660;7.082;2022-12-18T09:05:50;-5.00;99.90
5086;DHT22;4715;51.660;7.082;2022-12-18T09:08:14;-5.10;99.90
5086;DHT22;4715;51.660;7.082;2022-12-18T09:10:41;-4.90;99.90
5086;DHT22;4715;51.660;7.082;2022-12-18T09:13:04;-4.70;99.90
5086;DHT22;4715;51.660;7.082;2022-12-18T09:15:26;-4.60;99.90
5086;DHT22;4715;51.660;7.082;2022-12-18T09:17:48;-4.60;99.90
5086;DHT22;4715;51.660;7.082;2022-12-18T09:20:16;-4.50;99.90
5086;DHT22;4715;51.660;7.082;2022-12-18T09:22:38;-4.40;99.90
5086;DHT22;4715;51.660;7.082;2022-12-18T09:25:08;-4.30;99.90
5086;DHT22;4715;51.660;7.082;2022-12-18T09:27:31;-4.30;99.90
5086;DHT22;4715;51.660;7.082;2022-12-18T09:29:55;-4.20;99.90
5086;DHT22;4715;51.660;7.082;2022-12-18T09:32:20;-4.20;99.90
5086;DHT22;4715;51.660;7.082;2022-12-18T09:34:42;-4.10;99.90
5086;DHT22;4715;51.660;7.082;2022-12-18T09:37:05;-4.10;99.90
5086;DHT22;4715;51.660;7.082;2022-12-18T09:39:29;-4.00;99.90
5086;DHT22;4715;51.660;7.082;2022-12-18T09:41:54;-3.80;99.90
5086;DHT22;4715;51.660;7.082;2022-12-18T09:44:22;-3.80;99.90
5086;DHT22;4715;51.660;7.082;2022-12-18T09:46:52;-3.70;99.90
5086;DHT22;4715;51.660;7.082;2022-12-18T09:54:20;-3.50;99.90
5086;DHT22;4715;51.660;7.082;2022-12-18T09:56:44;-3.50;99.90
5086;DHT22;4715;51.660;7.082;2022-12-18T09:59:18;-3.40;99.90
5086;DHT22;4715;51.660;7.082;2022-12-18T10:04:08;-3.30;99.90
5086;DHT22;4715;51.660;7.082;2022-12-18T10:06:36;-3.20;99.90
5086;DHT22;4715;51.660;7.082;2022-12-18T10:09:02;-3.10;99.90
5086;DHT22;4715;51.660;7.082;2022-12-18T10:29:09;-2.50;99.90
5086;DHT22;4715;51.660;7.082;2022-12-18T10:31:37;-2.40;99.90
5086;DHT22;4715;51.660;7.082;2022-12-18T10:39:14;-2.30;99.90
5086;DHT22;4715;51.660;7.082;2022-12-18T10:44:18;-2.20;99.90
5086;DHT22;4715;51.660;7.082;2022-12-18T10:46:41;-2.10;99.90
5086;DHT22;4715;51.660;7.082;2022-12-18T10:49:04;-2.10;99.90
5086;DHT22;4715;51.660;7.082;2022-12-18T10:51:28;-2.10;99.90
5086;DHT22;4715;51.660;7.082;2022-12-18T10:53:54;-2.00;99.90
5086;DHT22;4715;51.660;7.082;2022-12-18T10:56:20;-2.00;99.90
5086;DHT22;4715;51.660;7.082;2022-12-18T10:58:42;-1.90;99.90
5086;DHT22;4715;51.660;7.082;2022-12-18T11:01:11;-1.90;99.90
5086;DHT22;4715;51.660;7.082;2022-12-18T11:03:35;-1.70;99.90
5086;DHT22;4715;51.660;7.082;2022-12-18T11:06:09;-1.70;99.90
5086;DHT22;4715;51.660;7.082;2022-12-18T11:08:31;-1.60;99.90
5086;DHT22;4715;51.660;7.082;2022-12-18T11:10:53;-1.60;99.90
5086;DHT22;4715;51.660;7.082;2022-12-18T11:13:20;-1.50;99.90
5086;DHT22;4715;51.660;7.082;2022-12-18T11:15:43;-1.50;99.90
5086;DHT22;4715;51.660;7.082;2022-12-18T11:18:17;-1.40;99.90
5086;DHT22;4715;51.660;7.082;2022-12-18T11:20:41;-1.30;99.90
5086;DHT22;4715;51.660;7.082;2022-12-18T11:23:04;-1.30;99.90
5086;DHT22;4715;51.660;7.082;2022-12-18T11:25:31;-1.20;99.90
5086;DHT22;4715;51.660;7.082;2022-12-18T11:27:56;-1.20;99.90
5086;DHT22;4715;51.660;7.082;2022-12-18T11:30:24;-1.20;99.90
5086;DHT22;4715;51.660;7.082;2022-12-18T11:32:49;-1.10;99.90
5086;DHT22;4715;51.660;7.082;2022-12-18T11:35:18;-1.10;99.90
5086;DHT22;4715;51.660;7.082;2022-12-18T11:37:43;-1.10;99.90
5086;DHT22;4715;51.660;7.082;2022-12-18T11:40:11;-1.00;99.90
5086;DHT22;4715;51.660;7.082;2022-12-18T11:42:38;-0.90;99.90
5086;DHT22;4715;51.660;7.082;2022-12-18T11:45:08;-1.00;99.90
5086;DHT22;4715;51.660;7.082;2022-12-18T11:47:40;-1.00;99.90
5086;DHT22;4715;51.660;7.082;2022-12-18T11:50:15;-0.90;99.90
5086;DHT22;4715;51.660;7.082;2022-12-18T11:52:40;-0.90;99.90
5086;DHT22;4715;51.660;7.082;2022-12-18T11:55:11;-0.90;99.90
5086;DHT22;4715;51.660;7.082;2022-12-18T11:57:36;-0.90;99.90
5086;DHT22;4715;51.660;7.082;2022-12-18T12:00:11;-0.80;99.90
5086;DHT22;4715;51.660;7.082;2022-12-18T12:02:48;-0.80;99.90
5086;DHT22;4715;51.660;7.082;2022-12-18T12:05:28;-0.80;99.90
5086;DHT22;4715;51.660;7.082;2022-12-18T12:08:01;-0.70;99.90
5086;DHT22;4715;51.660;7.082;2022-12-18T12:10:39;-0.70;99.90
5086;DHT22;4715;51.660;7.082;2022-12-18T12:13:14;-0.70;99.90
5086;DHT22;4715;51.660;7.082;2022-12-18T12:15:42;-0.60;99.90
5086;DHT22;4715;51.660;7.082;2022-12-18T12:18:16;-0.60;99.90
5086;DHT22;4715;51.660;7.082;2022-12-18T12:20:49;-0.60;99.90
5086;DHT22;4715;51.660;7.082;2022-12-18T12:23:22;-0.50;99.90
5086;DHT22;4715;51.660;7.082;2022-12-18T12:25:50;-0.50;99.90
5086;DHT22;4715;51.660;7.082;2022-12-18T12:28:31;-0.50;99.90
5086;DHT22;4715;51.660;7.082;2022-12-18T12:31:05;-0.50;99.90
5086;DHT22;4715;51.660;7.082;2022-12-18T12:33:37;-0.40;99.90
5086;DHT22;4715;51.660;7.082;2022-12-18T12:36:09;-0.40;99.90
5086;DHT22;4715;51.660;7.082;2022-12-18T12:38:40;-0.40;99.90
5086;DHT22;4715;51.660;7.082;2022-12-18T12:41:06;-0.40;99.90
5086;DHT22;4715;51.660;7.082;2022-12-18T12:43:49;-0.40;99.90
5086;DHT22;4715;51.660;7.082;2022-12-18T12:46:14;-0.40;99.90
5086;DHT22;4715;51.660;7.082;2022-12-18T12:48:46;-0.30;99.90
5086;DHT22;4715;51.660;7.082;2022-12-18T12:51:15;-0.30;99.90
5086;DHT22;4715;51.660;7.082;2022-12-18T12:53:38;-0.30;99.90
5086;DHT22;4715;51.660;7.082;2022-12-18T12:56:02;-0.30;99.90
5086;DHT22;4715;51.660;7.082;2022-12-18T12:58:33;-0.30;99.90
5086;DHT22;4715;51.660;7.082;2022-12-18T13:01:08;-0.30;99.90
5086;DHT22;4715;51.660;7.082;2022-12-18T13:03:41;-0.20;99.90
5086;DHT22;4715;51.660;7.082;2022-12-18T13:06:10;-0.20;99.90
5086;DHT22;4715;51.660;7.082;2022-12-18T13:08:52;-0.20;99.90
5086;DHT22;4715;51.660;7.082;2022-12-18T13:11:29;-0.20;99.90
5086;DHT22;4715;51.660;7.082;2022-12-18T13:14:21;-0.20;99.90
5086;DHT22;4715;51.660;7.082;2022-12-18T13:16:43;-0.20;99.90
5086;DHT22;4715;51.660;7.082;2022-12-18T13:19:26;-0.20;99.90
5086;DHT22;4715;51.660;7.082;2022-12-18T13:21:53;-0.20;99.90
5086;DHT22;4715;51.660;7.082;2022-12-18T13:24:24;-0.20;99.90
5086;DHT22;4715;51.660;7.082;2022-12-18T13:26:46;-0.20;99.90
5086;DHT22;4715;51.660;7.082;2022-12-18T13:29:08;-0.20;99.90
5086;DHT22;4715;51.660;7.082;2022-12-18T13:34:29;-0.20;99.90
5086;DHT22;4715;51.660;7.082;2022-12-18T13:36:55;-0.20;99.90
5086;DHT22;4715;51.660;7.082;2022-12-18T13:39:33;-0.20;99.90
5086;DHT22;4715;51.660;7.082;2022-12-18T13:45:38;-0.20;99.90
5086;DHT22;4715;51.660;7.082;2022-12-18T13:48:00;-0.20;99.90
5086;DHT22;4715;51.660;7.082;2022-12-18T13:50:26;-0.20;99.90
5086;DHT22;4715;51.660;7.082;2022-12-18T13:52:50;-0.20;99.90
5086;DHT22;4715;51.660;7.082;2022-12-18T13:55:17;-0.20;99.90
5086;DHT22;4715;51.660;7.082;2022-12-18T13:57:40;-0.20;99.90
5086;DHT22;4715;51.660;7.082;2022-12-18T14:00:24;-0.20;99.90
5086;DHT22;4715;51.660;7.082;2022-12-18T14:02:46;-0.20;99.90
5086;DHT22;4715;51.660;7.082;2022-12-18T14:05:21;-0.20;99.90
5086;DHT22;4715;51.660;7.082;2022-12-18T14:07:47;-0.20;99.90
5086;DHT22;4715;51.660;7.082;2022-12-18T14:10:15;-0.30;99.90
5086;DHT22;4715;51.660;7.082;2022-12-18T14:12:38;-0.30;99.90
5086;DHT22;4715;51.660;7.082;2022-12-18T14:15:25;-0.30;99.90
5086;DHT22;4715;51.660;7.082;2022-12-18T14:17:49;-0.30;99.90
5086;DHT22;4715;51.660;7.082;2022-12-18T14:20:13;-0.30;99.90
5086;DHT22;4715;51.660;7.082;2022-12-18T14:22:37;-0.30;99.90
5086;DHT22;4715;51.660;7.082;2022-12-18T14:25:16;-0.30;99.90
5086;DHT22;4715;51.660;7.082;2022-12-18T14:27:42;-0.30;99.90
5086;DHT22;4715;51.660;7.082;2022-12-18T14:30:24;-0.30;99.90
5086;DHT22;4715;51.660;7.082;2022-12-18T14:33:00;-0.30;99.90
5086;DHT22;4715;51.660;7.082;2022-12-18T14:35:22;-0.30;99.90
5086;DHT22;4715;51.660;7.082;2022-12-18T14:37:43;-0.30;99.90
5086;DHT22;4715;51.660;7.082;2022-12-18T14:40:13;-0.30;99.90
5086;DHT22;4715;51.660;7.082;2022-12-18T14:42:36;-0.30;99.90
5086;DHT22;4715;51.660;7.082;2022-12-18T14:45:33;-0.30;99.90
5086;DHT22;4715;51.660;7.082;2022-12-18T14:47:56;-0.30;99.90
5086;DHT22;4715;51.660;7.082;2022-12-18T14:50:18;-0.30;99.90
5086;DHT22;4715;51.660;7.082;2022-12-18T14:52:40;-0.30;99.90
5086;DHT22;4715;51.660;7.082;2022-12-18T14:55:04;-0.30;99.90
5086;DHT22;4715;51.660;7.082;2022-12-18T14:57:37;-0.30;99.90
5086;DHT22;4715;51.660;7.082;2022-12-18T15:00:06;-0.20;99.90
5086;DHT22;4715;51.660;7.082;2022-12-18T15:02:29;-0.30;99.90
5086;DHT22;4715;51.660;7.082;2022-12-18T15:05:00;-0.30;99.90
5086;DHT22;4715;51.660;7.082;2022-12-18T15:07:23;-0.30;99.90
5086;DHT22;4715;51.660;7.082;2022-12-18T15:10:07;-0.30;99.90
5086;DHT22;4715;51.660;7.082;2022-12-18T15:12:35;-0.20;99.90
5086;DHT22;4715;51.660;7.082;2022-12-18T15:14:59;-0.30;99.90
5086;DHT22;4715;51.660;7.082;2022-12-18T15:17:23;-0.30;99.90
5086;DHT22;4715;51.660;7.082;2022-12-18T15:19:46;-0.30;99.90
5086;DHT22;4715;51.660;7.082;2022-12-18T15:22:29;-0.30;99.90
5086;DHT22;4715;51.660;7.082;2022-12-18T15:24:53;-0.30;99.90
5086;DHT22;4715;51.660;7.082;2022-12-18T15:27:24;-0.30;99.90
5086;DHT22;4715;51.660;7.082;2022-12-18T15:30:01;-0.30;99.90
5086;DHT22;4715;51.660;7.082;2022-12-18T15:32:24;-0.30;99.90
5086;DHT22;4715;51.660;7.082;2022-12-18T15:34:45;-0.30;99.90
5086;DHT22;4715;51.660;7.082;2022-12-18T15:37:07;-0.30;99.90
5086;DHT22;4715;51.660;7.082;2022-12-18T15:39:30;-0.30;99.90
5086;DHT22;4715;51.660;7.082;2022-12-18T15:41:54;-0.30;99.90
5086;DHT22;4715;51.660;7.082;2022-12-18T15:44:43;-0.30;99.90
5086;DHT22;4715;51.660;7.082;2022-12-18T15:47:11;-0.30;99.90
5086;DHT22;4715;51.660;7.082;2022-12-18T15:49:33;-0.30;99.90
5086;DHT22;4715;51.660;7.082;2022-12-18T15:51:57;-0.30;99.90
5086;DHT22;4715;51.660;7.082;2022-12-18T15:54:20;-0.30;99.90
5086;DHT22;4715;51.660;7.082;2022-12-18T15:57:03;-0.30;99.90
5086;DHT22;4715;51.660;7.082;2022-12-18T15:59:42;-0.30;99.90
5086;DHT22;4715;51.660;7.082;2022-12-18T16:02:10;-0.40;99.90
5086;DHT22;4715;51.660;7.082;2022-12-18T16:04:37;-0.40;99.90
5086;DHT22;4715;51.660;7.082;2022-12-18T16:06:58;-0.40;99.90
5086;DHT22;4715;51.660;7.082;2022-12-18T16:09:22;-0.40;99.90
5086;DHT22;4715;51.660;7.082;2022-12-18T16:11:44;-0.40;99.90
5086;DHT22;4715;51.660;7.082;2022-12-18T16:14:16;-0.40;99.90
5086;DHT22;4715;51.660;7.082;2022-12-18T16:16:38;-0.40;99.90
5086;DHT22;4715;51.660;7.082;2022-12-18T16:19:01;-0.40;99.90
5086;DHT22;4715;51.660;7.082;2022-12-18T16:21:23;-0.40;99.90
5086;DHT22;4715;51.660;7.082;2022-12-18T16:23:45;-0.30;99.90
5086;DHT22;4715;51.660;7.082;2022-12-18T16:26:07;-0.30;99.90
5086;DHT22;4715;51.660;7.082;2022-12-18T16:28:29;-0.30;99.90
5086;DHT22;4715;51.660;7.082;2022-12-18T16:30:54;-0.20;99.90
5086;DHT22;4715;51.660;7.082;2022-12-18T16:33:16;-0.20;99.90
5086;DHT22;4715;51.660;7.082;2022-12-18T16:35:39;-0.10;99.90
5086;DHT22;4715;51.660;7.082;2022-12-18T16:38:01;-0.10;99.90